Time;durP1;ratioP1;P1;durP2;ratioP2;P2;SDS_P1;SDS_P2;PMS_P1;PMS_P2;Temp;Humidity;BMP_temperature;BMP_pressure;BME280_temperature;BME280_humidity;BME280_pressure;Samples;Min_cycle;Max_cycle;Signal;HPM_P1;HPM_P2
2022/01/14 00:02:15;;;;;;;;;;;-4.10;99.90;;;;;;5033414;28;19924;-86
2022/01/14 00:04:41;;;;;;;;;;;-4.00;99.90;;;;;;5034110;28;19992;-86
2022/01/14 00:07:06;;;;;;;;;;;-4.00;99.90;;;;;;5028313;28;20357;-85
2022/01/14 00:09:33;;;;;;;;;;;-3.90;99.90;;;;;;5032226;28;19913;-86
2022/01/14 00:12:00;;;;;;;;;;;-4.00;99.90;;;;;;5033849;28;20216;-87
2022/01/14 00:14:41;;;;;;;;;;;-4.00;99.90;;;;;;5017614;28;19921;-86
2022/01/14 00:17:11;;;;;;;;;;;-4.10;99.90;;;;;;5019607;28;19960;-87
2022/01/14 00:19:37;;;;;;;;;;;-4.20;99.90;;;;;;5033089;28;19917;-85
2022/01/14 00:22:08;;;;;;;;;;;-4.30;99.90;;;;;;5034081;28;19915;-86
2022/01/14 00:35:16;;;;;;;;;;;-4.30;99.90;;;;;;5035798;28;19913;-87
2022/01/14 00:37:42;;;;;;;;;;;-4.30;99.90;;;;;;5034561;28;19909;-87
2022/01/14 00:40:08;;;;;;;;;;;-4.40;99.90;;;;;;5018427;28;19914;-84
2022/01/14 00:42:33;;;;;;;;;;;-4.40;99.90;;;;;;5050936;28;19909;-86
2022/01/14 00:44:59;;;;;;;;;;;-4.30;99.90;;;;;;5017694;28;19953;-85
2022/01/14 00:47:24;;;;;;;;;;;-4.50;99.90;;;;;;5034542;28;20356;-85
2022/01/14 00:49:50;;;;;;;;;;;-4.50;99.90;;;;;;5017507;28;20027;-87
2022/01/14 00:52:15;;;;;;;;;;;-4.40;99.90;;;;;;5017699;28;20008;-86
2022/01/14 00:54:42;;;;;;;;;;;-4.40;99.90;;;;;;5017402;28;19913;-86
2022/01/14 00:59:33;;;;;;;;;;;-4.40;99.90;;;;;;5019728;28;19917;-87
2022/01/14 01:02:00;;;;;;;;;;;-4.40;99.90;;;;;;5033325;28;19921;-85
2022/01/14 01:04:35;;;;;;;;;;;-4.30;99.90;;;;;;5033244;28;20357;-86
2022/01/14 01:07:02;;;;;;;;;;;-4.40;99.90;;;;;;5034157;28;19917;-86
2022/01/14 01:09:30;;;;;;;;;;;-4.50;99.90;;;;;;5034485;28;19909;-86
2022/01/14 01:12:09;;;;;;;;;;;-4.50;99.90;;;;;;5034283;28;19924;-87
2022/01/14 01:14:51;;;;;;;;;;;-4.50;99.90;;;;;;5032500;28;19989;-87
2022/01/14 01:17:17;;;;;;;;;;;-4.80;99.90;;;;;;5034438;28;19944;-87
2022/01/14 01:19:43;;;;;;;;;;;-4.70;99.90;;;;;;5032838;28;19909;-86
2022/01/14 01:22:08;;;;;;;;;;;-4.70;99.90;;;;;;5016547;28;19953;-85
2022/01/14 01:24:34;;;;;;;;;;;-4.70;99.90;;;;;;4996468;28;19972;-86
2022/01/14 01:27:06;;;;;;;;;;;-4.70;99.90;;;;;;5013314;28;19913;-88
2022/01/14 01:31:57;;;;;;;;;;;-4.80;99.90;;;;;;5027113;28;20030;-87
2022/01/14 01:34:24;;;;;;;;;;;-4.80;99.90;;;;;;5031485;28;19937;-87
2022/01/14 01:36:51;;;;;;;;;;;-4.60;99.90;;;;;;5033760;28;19917;-84
2022/01/14 01:39:18;;;;;;;;;;;-4.70;99.90;;;;;;5032599;28;20007;-87
2022/01/14 01:41:45;;;;;;;;;;;-4.70;99.90;;;;;;5016675;28;20337;-86
2022/01/14 01:44:11;;;;;;;;;;;-4.60;99.90;;;;;;5032586;28;20352;-85
2022/01/14 01:46:39;;;;;;;;;;;-4.60;99.90;;;;;;5031716;28;20011;-86
2022/01/14 01:49:05;;;;;;;;;;;-4.60;99.90;;;;;;5032206;28;20292;-87
2022/01/14 01:51:30;;;;;;;;;;;-4.60;99.90;;;;;;5032500;28;19916;-85
2022/01/14 01:53:56;;;;;;;;;;;-4.70;99.90;;;;;;5030841;28;20367;-86
2022/01/14 01:56:22;;;;;;;;;;;-4.70;99.90;;;;;;5016413;28;19917;-88
2022/01/14 01:58:47;;;;;;;;;;;-4.60;99.90;;;;;;5007307;28;19913;-87
2022/01/14 02:01:13;;;;;;;;;;;-4.70;99.90;;;;;;5031700;28;20116;-85
2022/01/14 02:03:38;;;;;;;;;;;-4.70;99.90;;;;;;5031621;28;20360;-86
2022/01/14 02:06:04;;;;;;;;;;;-4.70;99.90;;;;;;5030893;28;19921;-88
2022/01/14 02:08:30;;;;;;;;;;;-4.70;99.90;;;;;;5031206;28;20024;-85
2022/01/14 02:10:56;;;;;;;;;;;-4.70;99.90;;;;;;5030489;28;19917;-86
2022/01/14 02:13:22;;;;;;;;;;;-4.70;99.90;;;;;;5031620;28;19939;-86
2022/01/14 02:16:35;;;;;;;;;;;-4.70;99.90;;;;;;5024370;28;20420;-86
2022/01/14 02:18:40;;;;;;;;;;;-4.70;99.90;;;;;;5039111;28;19964;-88
2022/01/14 02:23:56;;;;;;;;;;;-4.80;99.90;;;;;;5031600;28;20009;-84
2022/01/14 02:26:22;;;;;;;;;;;-4.80;99.90;;;;;;5028908;28;19977;-85
2022/01/14 02:28:49;;;;;;;;;;;-4.70;99.90;;;;;;5030123;28;19923;-86
2022/01/14 02:31:14;;;;;;;;;;;-4.70;99.90;;;;;;5028630;28;19917;-85
2022/01/14 02:33:40;;;;;;;;;;;-4.70;99.90;;;;;;5025294;28;19987;-85
2022/01/14 02:36:06;;;;;;;;;;;-4.80;99.90;;;;;;5031944;28;19969;-86
2022/01/14 02:38:32;;;;;;;;;;;-4.80;99.90;;;;;;5032927;28;20022;-85
2022/01/14 02:40:58;;;;;;;;;;;-4.80;99.90;;;;;;5027394;28;20107;-85
2022/01/14 02:43:25;;;;;;;;;;;-4.80;99.90;;;;;;5032798;28;19920;-85
2022/01/14 02:45:53;;;;;;;;;;;-4.80;99.90;;;;;;5032313;28;19917;-86
2022/01/14 02:48:21;;;;;;;;;;;-4.80;99.90;;;;;;5029914;28;19913;-85
2022/01/14 02:51:11;;;;;;;;;;;-4.80;99.90;;;;;;5026847;28;19914;-87
2022/01/14 02:56:06;;;;;;;;;;;-4.70;99.90;;;;;;5031408;28;19917;-86
2022/01/14 02:58:33;;;;;;;;;;;-4.70;99.90;;;;;;5032067;28;19913;-87
2022/01/14 03:01:00;;;;;;;;;;;-4.70;99.90;;;;;;5032182;28;19917;-85
2022/01/14 03:03:26;;;;;;;;;;;-4.70;99.90;;;;;;5033469;28;19971;-86
2022/01/14 03:05:52;;;;;;;;;;;-4.60;99.90;;;;;;5030196;28;19919;-85
2022/01/14 03:08:19;;;;;;;;;;;-4.60;99.90;;;;;;5030802;28;19913;-86
2022/01/14 03:10:47;;;;;;;;;;;-4.60;99.90;;;;;;5030793;28;19913;-85
2022/01/14 03:13:13;;;;;;;;;;;-4.60;99.90;;;;;;5024178;28;19924;-86
2022/01/14 03:15:39;;;;;;;;;;;-4.60;99.90;;;;;;5021220;28;20284;-86
2022/01/14 03:18:04;;;;;;;;;;;-4.60;99.90;;;;;;5030734;28;20451;-87
2022/01/14 03:20:50;;;;;;;;;;;-4.70;99.90;;;;;;5026390;28;19921;-88
2022/01/14 03:23:17;;;;;;;;;;;-4.80;99.90;;;;;;5022315;28;19957;-86
2022/01/14 03:25:49;;;;;;;;;;;-4.90;99.90;;;;;;5029885;28;20689;-86
2022/01/14 03:28:16;;;;;;;;;;;-4.80;99.90;;;;;;5026742;28;19913;-86
2022/01/14 03:30:42;;;;;;;;;;;-4.90;99.90;;;;;;5030013;28;19913;-86
2022/01/14 03:33:08;;;;;;;;;;;-4.90;99.90;;;;;;5031295;28;20012;-86
2022/01/14 03:35:34;;;;;;;;;;;-4.90;99.90;;;;;;5030009;28;19909;-86
2022/01/14 03:37:59;;;;;;;;;;;-4.80;99.90;;;;;;5020181;28;19923;-86
2022/01/14 03:40:26;;;;;;;;;;;-4.70;99.90;;;;;;5030162;28;20105;-86
2022/01/14 03:42:52;;;;;;;;;;;-4.70;99.90;;;;;;5030039;28;20051;-86
2022/01/14 03:45:17;;;;;;;;;;;-4.70;99.90;;;;;;5014297;28;20004;-87
2022/01/14 03:47:43;;;;;;;;;;;-4.70;99.90;;;;;;5030331;28;19910;-85
2022/01/14 03:50:09;;;;;;;;;;;-4.80;99.90;;;;;;5045797;28;19972;-85
2022/01/14 03:52:34;;;;;;;;;;;-4.70;99.90;;;;;;5031286;28;20150;-86
2022/01/14 03:55:00;;;;;;;;;;;-4.70;99.90;;;;;;5031146;28;19922;-85
2022/01/14 03:57:25;;;;;;;;;;;-4.80;99.90;;;;;;5031323;28;19917;-85
2022/01/14 03:59:51;;;;;;;;;;;-4.70;99.90;;;;;;5031114;28;20364;-86
2022/01/14 04:02:16;;;;;;;;;;;-4.70;99.90;;;;;;5029875;28;19913;-87
2022/01/14 04:04:42;;;;;;;;;;;-4.70;99.90;;;;;;5006432;28;19928;-86
2022/01/14 04:07:07;;;;;;;;;;;-4.60;99.90;;;;;;5020088;28;19914;-86
2022/01/14 04:09:36;;;;;;;;;;;-4.60;99.90;;;;;;5017779;28;19917;-87
2022/01/14 04:12:03;;;;;;;;;;;-4.50;99.90;;;;;;5031220;28;19932;-86
2022/01/14 04:16:54;;;;;;;;;;;-4.60;99.90;;;;;;5032480;28;20014;-86
2022/01/14 04:19:20;;;;;;;;;;;-4.60;99.90;;;;;;5030327;28;20295;-86
2022/01/14 04:21:46;;;;;;;;;;;-4.60;99.90;;;;;;5030004;28;19917;-86
2022/01/14 04:24:11;;;;;;;;;;;-4.60;99.90;;;;;;5030197;28;19928;-86
2022/01/14 04:26:37;;;;;;;;;;;-4.60;99.90;;;;;;5028931;28;19909;-85
2022/01/14 04:29:03;;;;;;;;;;;-4.60;99.90;;;;;;5030299;28;20459;-86
2022/01/14 04:31:28;;;;;;;;;;;-4.60;99.90;;;;;;5029227;28;19920;-86
2022/01/14 04:33:54;;;;;;;;;;;-4.60;99.90;;;;;;5029823;28;19928;-87
2022/01/14 04:36:19;;;;;;;;;;;-4.60;99.90;;;;;;5030239;28;20012;-86
2022/01/14 04:38:45;;;;;;;;;;;-4.50;99.90;;;;;;5028689;28;20288;-86
2022/01/14 04:41:12;;;;;;;;;;;-4.60;99.90;;;;;;5030398;28;20007;-86
2022/01/14 04:43:38;;;;;;;;;;;-4.60;99.90;;;;;;5020901;28;19909;-86
2022/01/14 04:48:33;;;;;;;;;;;-4.60;99.90;;;;;;5013964;28;19936;-86
2022/01/14 04:51:00;;;;;;;;;;;-4.60;99.90;;;;;;5030235;28;19909;-85
2022/01/14 04:53:26;;;;;;;;;;;-4.60;99.90;;;;;;5033436;28;19921;-85
2022/01/14 04:55:52;;;;;;;;;;;-4.60;99.90;;;;;;5034771;28;19913;-85
2022/01/14 04:58:18;;;;;;;;;;;-4.70;99.90;;;;;;5016825;28;19924;-86
2022/01/14 05:00:43;;;;;;;;;;;-4.60;99.90;;;;;;5031903;28;20328;-86
2022/01/14 05:03:09;;;;;;;;;;;-4.60;99.90;;;;;;5033211;28;20320;-87
2022/01/14 05:05:38;;;;;;;;;;;-4.60;99.90;;;;;;5032993;28;19913;-85
2022/01/14 05:08:20;;;;;;;;;;;-4.50;99.90;;;;;;5026160;28;19963;-87
2022/01/14 05:11:21;;;;;;;;;;;-4.60;99.90;;;;;;5033764;28;19921;-87
2022/01/14 05:13:34;;;;;;;;;;;-4.60;99.90;;;;;;5035184;28;19971;-85
2022/01/14 05:16:00;;;;;;;;;;;-4.60;99.90;;;;;;5033403;28;19914;-85
2022/01/14 05:18:25;;;;;;;;;;;-4.50;99.90;;;;;;5019021;28;19952;-85
2022/01/14 05:20:51;;;;;;;;;;;-4.60;99.90;;;;;;5035294;28;19936;-87
2022/01/14 05:23:17;;;;;;;;;;;-4.50;99.90;;;;;;5034448;28;19939;-85
2022/01/14 05:25:42;;;;;;;;;;;-4.40;99.90;;;;;;5033418;28;20436;-86
2022/01/14 05:28:08;;;;;;;;;;;-4.40;99.90;;;;;;5033119;28;19913;-87
2022/01/14 05:30:34;;;;;;;;;;;-4.40;99.90;;;;;;5032960;28;19967;-86
2022/01/14 05:32:59;;;;;;;;;;;-4.40;99.90;;;;;;5017349;28;19932;-87
2022/01/14 05:35:25;;;;;;;;;;;-4.40;99.90;;;;;;5034455;28;20429;-86
2022/01/14 05:37:51;;;;;;;;;;;-4.40;99.90;;;;;;5034098;28;19913;-87
2022/01/14 05:40:18;;;;;;;;;;;-4.40;99.90;;;;;;5027156;28;19910;-86
2022/01/14 05:42:43;;;;;;;;;;;-4.40;99.90;;;;;;5026566;28;19961;-85
2022/01/14 05:45:10;;;;;;;;;;;-4.30;99.90;;;;;;5033641;28;20343;-86
2022/01/14 05:47:36;;;;;;;;;;;-4.40;99.90;;;;;;5030904;28;19968;-88
2022/01/14 05:50:03;;;;;;;;;;;-4.30;99.90;;;;;;5031954;28;19945;-85
2022/01/14 05:52:28;;;;;;;;;;;-4.30;99.90;;;;;;5024144;28;19929;-85
2022/01/14 05:54:55;;;;;;;;;;;-4.30;99.90;;;;;;5031990;28;19917;-85
2022/01/14 05:57:21;;;;;;;;;;;-4.30;99.90;;;;;;5031518;28;19920;-84
2022/01/14 05:59:47;;;;;;;;;;;-4.20;99.90;;;;;;5032134;28;19913;-86
2022/01/14 06:02:12;;;;;;;;;;;-4.20;99.90;;;;;;5027570;28;20613;-85
2022/01/14 06:04:38;;;;;;;;;;;-4.20;99.90;;;;;;5042693;28;19909;-86
2022/01/14 06:07:04;;;;;;;;;;;-4.20;99.90;;;;;;5029850;28;20360;-85
2022/01/14 06:09:29;;;;;;;;;;;-4.20;99.90;;;;;;5013781;28;19920;-86
2022/01/14 06:11:55;;;;;;;;;;;-4.20;99.90;;;;;;5030489;28;19983;-86
2022/01/14 06:14:21;;;;;;;;;;;-4.20;99.90;;;;;;5016164;28;19921;-86
2022/01/14 06:16:47;;;;;;;;;;;-4.20;99.90;;;;;;5032447;28;19914;-85
2022/01/14 06:19:12;;;;;;;;;;;-4.10;99.90;;;;;;5032387;28;20006;-87
2022/01/14 06:21:38;;;;;;;;;;;-4.10;99.90;;;;;;5032878;28;19955;-86
2022/01/14 06:24:03;;;;;;;;;;;-4.10;99.90;;;;;;5031856;28;19932;-86
2022/01/14 06:26:29;;;;;;;;;;;-4.00;99.90;;;;;;5032743;28;20290;-86
2022/01/14 06:28:54;;;;;;;;;;;-4.00;99.90;;;;;;5017304;28;19913;-86
2022/01/14 06:31:20;;;;;;;;;;;-4.00;99.90;;;;;;5033353;28;20336;-86
2022/01/14 06:33:46;;;;;;;;;;;-4.00;99.90;;;;;;5017285;28;20368;-86
2022/01/14 06:36:11;;;;;;;;;;;-4.00;99.90;;;;;;5033597;28;19909;-86
2022/01/14 06:38:37;;;;;;;;;;;-4.00;99.90;;;;;;5017197;28;19952;-86
2022/01/14 06:41:03;;;;;;;;;;;-4.00;99.90;;;;;;5016927;28;19920;-85
2022/01/14 06:43:28;;;;;;;;;;;-4.00;99.90;;;;;;5041155;28;19913;-86
2022/01/14 06:45:54;;;;;;;;;;;-4.00;99.90;;;;;;5036688;28;20019;-87
2022/01/14 06:48:20;;;;;;;;;;;-4.00;99.90;;;;;;5053575;28;19913;-87
2022/01/14 06:50:45;;;;;;;;;;;-4.00;99.90;;;;;;5053124;28;19913;-86
2022/01/14 06:53:11;;;;;;;;;;;-4.00;99.90;;;;;;5056426;28;20398;-86
2022/01/14 06:55:36;;;;;;;;;;;-4.00;99.90;;;;;;5060100;28;19935;-86
2022/01/14 06:58:02;;;;;;;;;;;-4.00;99.90;;;;;;5034191;28;19940;-87
2022/01/14 07:00:28;;;;;;;;;;;-4.10;99.90;;;;;;5037676;28;19952;-85
2022/01/14 07:02:54;;;;;;;;;;;-4.10;99.90;;;;;;5034713;28;20420;-86
2022/01/14 07:05:19;;;;;;;;;;;-4.20;99.90;;;;;;5033416;28;19936;-87
2022/01/14 07:07:45;;;;;;;;;;;-4.10;99.90;;;;;;5032747;28;20380;-86
2022/01/14 07:10:11;;;;;;;;;;;-4.10;99.90;;;;;;5033433;28;20280;-86
2022/01/14 07:12:38;;;;;;;;;;;-4.10;99.90;;;;;;5033680;28;19996;-86
2022/01/14 07:15:10;;;;;;;;;;;-4.10;99.90;;;;;;5034401;28;19963;-85
2022/01/14 07:17:36;;;;;;;;;;;-4.10;99.90;;;;;;5034117;28;19913;-86
2022/01/14 07:20:07;;;;;;;;;;;-4.00;99.90;;;;;;5033661;28;19909;-86
2022/01/14 07:22:32;;;;;;;;;;;-4.00;99.90;;;;;;5033865;28;19924;-85
2022/01/14 07:24:58;;;;;;;;;;;-4.00;99.90;;;;;;5050502;28;19917;-86
2022/01/14 07:27:24;;;;;;;;;;;-4.00;99.90;;;;;;5052192;28;19920;-86
2022/01/14 07:29:50;;;;;;;;;;;-4.00;99.90;;;;;;5040119;28;19969;-86
2022/01/14 07:32:16;;;;;;;;;;;-3.90;99.90;;;;;;5039686;28;19956;-86
2022/01/14 07:34:41;;;;;;;;;;;-3.90;99.90;;;;;;5038851;28;20353;-86
2022/01/14 07:37:07;;;;;;;;;;;-3.80;99.90;;;;;;5034607;28;19996;-85
2022/01/14 07:39:33;;;;;;;;;;;-3.80;99.90;;;;;;5032933;28;19956;-86
2022/01/14 07:41:58;;;;;;;;;;;-3.80;99.90;;;;;;5049506;28;19909;-85
2022/01/14 07:44:24;;;;;;;;;;;-3.80;99.90;;;;;;5048793;28;19947;-88
2022/01/14 07:46:50;;;;;;;;;;;-3.80;99.90;;;;;;5049113;28;19952;-85
2022/01/14 07:49:15;;;;;;;;;;;-3.70;99.90;;;;;;5032785;28;19920;-86
2022/01/14 07:51:41;;;;;;;;;;;-3.70;99.90;;;;;;5032540;28;19920;-86
2022/01/14 07:54:07;;;;;;;;;;;-3.60;99.90;;;;;;5032225;28;20319;-86
2022/01/14 07:56:33;;;;;;;;;;;-3.70;99.90;;;;;;5014668;28;20007;-87
2022/01/14 07:58:59;;;;;;;;;;;-3.60;99.90;;;;;;5032293;28;19909;-85
2022/01/14 08:01:25;;;;;;;;;;;-3.50;99.90;;;;;;5015173;28;20296;-86
2022/01/14 08:03:50;;;;;;;;;;;-3.50;99.90;;;;;;5032076;28;19909;-86
2022/01/14 08:06:17;;;;;;;;;;;-3.50;99.90;;;;;;5031988;28;19917;-85
2022/01/14 08:08:43;;;;;;;;;;;-3.40;99.90;;;;;;5016206;28;20455;-87
2022/01/14 08:11:09;;;;;;;;;;;-3.30;99.90;;;;;;5032293;28;20631;-87
2022/01/14 08:13:34;;;;;;;;;;;-3.20;99.90;;;;;;5032228;28;20434;-85
2022/01/14 08:16:00;;;;;;;;;;;-3.20;99.90;;;;;;5031954;28;19919;-86
2022/01/14 08:18:25;;;;;;;;;;;-3.10;99.90;;;;;;5048573;28;19960;-86
2022/01/14 08:20:52;;;;;;;;;;;-3.10;99.90;;;;;;5034949;28;19959;-84
2022/01/14 08:23:19;;;;;;;;;;;-3.10;99.90;;;;;;5035421;28;19966;-87
2022/01/14 08:25:45;;;;;;;;;;;-3.10;99.90;;;;;;5035436;28;19909;-86
2022/01/14 08:28:10;;;;;;;;;;;-3.00;99.90;;;;;;5035318;28;19934;-87
2022/01/14 08:30:36;;;;;;;;;;;-3.00;99.90;;;;;;5033831;28;19941;-88
2022/01/14 08:33:01;;;;;;;;;;;-2.90;99.90;;;;;;5034849;28;19917;-87
2022/01/14 08:35:27;;;;;;;;;;;-3.00;99.90;;;;;;5022033;28;19997;-86
2022/01/14 08:37:53;;;;;;;;;;;-2.90;99.90;;;;;;5015018;28;19913;-87
2022/01/14 08:40:18;;;;;;;;;;;-2.90;99.90;;;;;;5022699;28;19913;-85
2022/01/14 08:42:47;;;;;;;;;;;-2.90;99.90;;;;;;5033874;28;20014;-86
2022/01/14 08:45:18;;;;;;;;;;;-2.90;99.90;;;;;;5027977;28;19913;-86
2022/01/14 08:47:44;;;;;;;;;;;-2.80;99.90;;;;;;5015217;28;19914;-85
2022/01/14 08:50:09;;;;;;;;;;;-2.90;99.90;;;;;;5015046;28;19910;-87
2022/01/14 08:52:35;;;;;;;;;;;-2.70;99.90;;;;;;5015149;28;20134;-87
2022/01/14 08:55:00;;;;;;;;;;;-2.50;99.90;;;;;;5015213;28;19949;-86
2022/01/14 08:57:26;;;;;;;;;;;-2.50;99.90;;;;;;5016554;28;19917;-86
2022/01/14 08:59:51;;;;;;;;;;;-2.40;99.90;;;;;;5034906;28;19913;-88
2022/01/14 09:02:17;;;;;;;;;;;-2.40;99.90;;;;;;5051782;28;20371;-85
2022/01/14 09:04:43;;;;;;;;;;;-2.50;99.90;;;;;;5018900;28;19936;-85
2022/01/14 09:07:08;;;;;;;;;;;-2.40;99.90;;;;;;5035211;28;19917;-87
2022/01/14 09:09:34;;;;;;;;;;;-2.40;99.90;;;;;;5035625;28;20104;-85
2022/01/14 09:12:02;;;;;;;;;;;-2.40;99.90;;;;;;5030770;28;20368;-86
2022/01/14 09:14:27;;;;;;;;;;;-2.40;99.90;;;;;;5035054;28;19910;-86
2022/01/14 09:16:53;;;;;;;;;;;-2.30;99.90;;;;;;5035446;28;19909;-86
2022/01/14 09:19:20;;;;;;;;;;;-2.30;99.90;;;;;;5019158;28;19920;-86
2022/01/14 09:21:46;;;;;;;;;;;-2.20;99.90;;;;;;5038737;28;19963;-85
2022/01/14 09:24:12;;;;;;;;;;;-2.00;99.90;;;;;;5019537;28;19921;-85
2022/01/14 09:26:38;;;;;;;;;;;-2.00;99.90;;;;;;5015352;28;19925;-86
2022/01/14 09:29:05;;;;;;;;;;;-2.00;99.90;;;;;;5035254;28;20361;-86
2022/01/14 09:31:30;;;;;;;;;;;-1.90;99.90;;;;;;5032547;28;20275;-86
2022/01/14 09:33:57;;;;;;;;;;;-1.90;99.90;;;;;;5018669;28;20024;-86
2022/01/14 09:36:22;;;;;;;;;;;-1.80;99.90;;;;;;5035582;28;19909;-87
2022/01/14 09:38:48;;;;;;;;;;;-1.70;99.90;;;;;;5035150;28;19913;-87
2022/01/14 09:41:14;;;;;;;;;;;-1.60;99.90;;;;;;5037371;28;19911;-85
2022/01/14 09:43:40;;;;;;;;;;;-1.50;99.90;;;;;;5041068;28;19910;-87
2022/01/14 09:46:07;;;;;;;;;;;-1.60;99.90;;;;;;5043185;28;19924;-86
2022/01/14 09:48:33;;;;;;;;;;;-1.50;99.90;;;;;;5039238;28;19913;-87
2022/01/14 09:50:59;;;;;;;;;;;-1.40;99.90;;;;;;5036318;28;19952;-86
2022/01/14 09:53:26;;;;;;;;;;;-1.40;99.90;;;;;;5033749;28;20332;-89
2022/01/14 09:55:52;;;;;;;;;;;-1.40;99.90;;;;;;5016925;28;19917;-87
2022/01/14 09:58:18;;;;;;;;;;;-1.30;99.90;;;;;;5033168;28;20280;-86
2022/01/14 10:00:44;;;;;;;;;;;-1.20;99.90;;;;;;5026377;28;19917;-86
2022/01/14 10:03:23;;;;;;;;;;;-1.00;99.90;;;;;;5023122;28;19921;-87
2022/01/14 10:05:51;;;;;;;;;;;-0.90;99.90;;;;;;5012619;28;19955;-87
2022/01/14 10:08:23;;;;;;;;;;;-0.90;99.90;;;;;;5013914;28;19909;-87
2022/01/14 10:10:54;;;;;;;;;;;-0.90;99.90;;;;;;5027102;28;19913;-85
2022/01/14 10:13:21;;;;;;;;;;;-0.90;99.90;;;;;;5033276;28;19917;-86
2022/01/14 10:15:52;;;;;;;;;;;-0.80;99.90;;;;;;5034138;28;19917;-87
2022/01/14 10:18:18;;;;;;;;;;;-0.80;99.90;;;;;;5034166;28;19913;-87
2022/01/14 10:20:44;;;;;;;;;;;-0.70;99.90;;;;;;5017770;28;19921;-88
2022/01/14 10:23:12;;;;;;;;;;;-0.80;99.90;;;;;;5012933;28;19918;-88
2022/01/14 10:25:39;;;;;;;;;;;-0.80;99.90;;;;;;5028128;28;20378;-86
2022/01/14 10:28:14;;;;;;;;;;;-0.80;99.90;;;;;;5032069;28;20111;-89
2022/01/14 10:30:44;;;;;;;;;;;-0.70;99.90;;;;;;5031725;28;19913;-86
2022/01/14 10:33:10;;;;;;;;;;;-0.70;99.90;;;;;;5030962;28;19932;-85
2022/01/14 10:35:39;;;;;;;;;;;-0.60;99.90;;;;;;5015920;28;19928;-86
2022/01/14 10:38:06;;;;;;;;;;;-0.60;99.90;;;;;;5032565;28;19924;-87
2022/01/14 10:40:35;;;;;;;;;;;-0.50;99.90;;;;;;5032382;28;19977;-88
2022/01/14 10:43:02;;;;;;;;;;;-0.50;99.90;;;;;;5031329;28;19932;-87
2022/01/14 10:45:28;;;;;;;;;;;-0.40;99.90;;;;;;5032413;28;19913;-87
2022/01/14 10:47:53;;;;;;;;;;;-0.30;99.90;;;;;;5011489;28;19917;-86
2022/01/14 10:50:25;;;;;;;;;;;-0.30;99.90;;;;;;5036805;28;20330;-86
2022/01/14 10:52:50;;;;;;;;;;;-0.10;99.90;;;;;;5029342;28;19924;-87
2022/01/14 10:55:26;;;;;;;;;;;-0.10;99.90;;;;;;5047828;28;20308;-86
2022/01/14 10:57:52;;;;;;;;;;;0.00;99.90;;;;;;5030810;28;20182;-86
2022/01/14 11:00:19;;;;;;;;;;;0.10;99.90;;;;;;5029176;28;20391;-88
2022/01/14 11:02:45;;;;;;;;;;;0.10;99.90;;;;;;5046175;28;19916;-85
2022/01/14 11:05:15;;;;;;;;;;;0.20;99.90;;;;;;5025994;28;19917;-86
2022/01/14 11:07:41;;;;;;;;;;;0.30;99.90;;;;;;5030523;28;19913;-87
2022/01/14 11:10:18;;;;;;;;;;;0.40;99.90;;;;;;5030204;28;19921;-86
2022/01/14 11:12:44;;;;;;;;;;;0.40;99.90;;;;;;5031591;28;19920;-85
2022/01/14 11:15:10;;;;;;;;;;;0.50;99.90;;;;;;5030163;28;20280;-86
2022/01/14 11:17:36;;;;;;;;;;;0.50;99.90;;;;;;5030040;28;19923;-86
2022/01/14 11:20:06;;;;;;;;;;;0.60;99.90;;;;;;5042829;28;20357;-87
2022/01/14 11:25:17;;;;;;;;;;;0.80;99.90;;;;;;5028847;28;19932;-87
2022/01/14 11:27:46;;;;;;;;;;;0.90;99.90;;;;;;5027705;28;19913;-87
2022/01/14 11:30:13;;;;;;;;;;;0.90;99.90;;;;;;5030164;28;19913;-87
2022/01/14 11:32:54;;;;;;;;;;;1.00;99.90;;;;;;5030242;28;19925;-87
2022/01/14 11:35:24;;;;;;;;;;;1.00;99.90;;;;;;5013336;28;20261;-87
2022/01/14 11:37:50;;;;;;;;;;;1.10;99.90;;;;;;5030506;28;20309;-88
2022/01/14 11:40:16;;;;;;;;;;;1.10;99.90;;;;;;5028542;28;19963;-87
2022/01/14 11:42:44;;;;;;;;;;;1.30;99.90;;;;;;5025313;28;19913;-88
2022/01/14 11:45:11;;;;;;;;;;;1.40;99.90;;;;;;5028435;28;19940;-87
2022/01/14 11:47:39;;;;;;;;;;;1.40;99.90;;;;;;5028844;28;20003;-86
2022/01/14 11:50:07;;;;;;;;;;;1.40;99.90;;;;;;5025646;28;20003;-88
2022/01/14 11:52:37;;;;;;;;;;;1.50;99.90;;;;;;5029613;28;20034;-89
2022/01/14 11:55:03;;;;;;;;;;;1.60;99.90;;;;;;5026341;28;19964;-89
2022/01/14 11:57:38;;;;;;;;;;;1.50;99.90;;;;;;5031903;28;19952;-87
2022/01/14 12:00:04;;;;;;;;;;;1.60;99.90;;;;;;5029772;28;20328;-88
2022/01/14 12:02:32;;;;;;;;;;;1.50;99.90;;;;;;5034221;28;19913;-87
2022/01/14 12:05:03;;;;;;;;;;;1.60;99.90;;;;;;5036079;28;19916;-86
2022/01/14 12:07:29;;;;;;;;;;;1.80;99.90;;;;;;5034412;28;19980;-86
2022/01/14 12:10:02;;;;;;;;;;;1.80;99.90;;;;;;5037818;28;20004;-86
2022/01/14 12:12:30;;;;;;;;;;;1.80;99.90;;;;;;5052984;28;19913;-89
2022/01/14 12:15:02;;;;;;;;;;;1.80;99.90;;;;;;5035460;28;19913;-87
2022/01/14 12:17:38;;;;;;;;;;;1.80;99.90;;;;;;5022224;28;20499;-87
2022/01/14 12:20:11;;;;;;;;;;;1.80;99.90;;;;;;5035956;28;20002;-86
2022/01/14 12:22:37;;;;;;;;;;;1.80;99.90;;;;;;5035931;28;19917;-89
2022/01/14 12:25:03;;;;;;;;;;;1.90;99.90;;;;;;5035978;28;20403;-87
2022/01/14 12:27:39;;;;;;;;;;;2.00;99.90;;;;;;5036250;28;19910;-87
2022/01/14 12:30:06;;;;;;;;;;;2.10;99.90;;;;;;5035760;28;19913;-87
2022/01/14 12:32:39;;;;;;;;;;;2.00;99.90;;;;;;5035064;28;19931;-88
2022/01/14 12:35:08;;;;;;;;;;;2.20;99.90;;;;;;5037403;28;19909;-87
2022/01/14 12:37:36;;;;;;;;;;;2.30;99.90;;;;;;5036916;28;19943;-87
2022/01/14 12:40:12;;;;;;;;;;;2.40;99.90;;;;;;5035388;28;19944;-86
2022/01/14 12:42:41;;;;;;;;;;;2.50;99.90;;;;;;5039770;28;19920;-88
2022/01/14 12:45:08;;;;;;;;;;;2.60;99.90;;;;;;5011357;28;19925;-89
2022/01/14 12:47:39;;;;;;;;;;;2.70;99.90;;;;;;5035916;28;19913;-87
2022/01/14 12:50:06;;;;;;;;;;;2.60;99.90;;;;;;5026205;28;19940;-87
2022/01/14 12:52:38;;;;;;;;;;;2.60;99.90;;;;;;5031482;28;20387;-85
2022/01/14 12:55:05;;;;;;;;;;;2.80;99.90;;;;;;5034991;28;19932;-87
2022/01/14 12:57:30;;;;;;;;;;;2.80;99.90;;;;;;5033336;28;20004;-85
2022/01/14 12:59:56;;;;;;;;;;;2.90;99.90;;;;;;5033289;28;20012;-86
2022/01/14 13:02:23;;;;;;;;;;;2.90;99.90;;;;;;5032004;28;19920;-89
2022/01/14 13:05:01;;;;;;;;;;;3.00;99.90;;;;;;5032176;28;19914;-87
2022/01/14 13:07:27;;;;;;;;;;;3.00;99.90;;;;;;5034189;28;19913;-86
2022/01/14 13:09:52;;;;;;;;;;;3.10;99.90;;;;;;5034564;28;19920;-86
2022/01/14 13:12:21;;;;;;;;;;;3.20;99.90;;;;;;5032540;28;19920;-87
2022/01/14 13:15:05;;;;;;;;;;;3.30;99.90;;;;;;5027699;28;19921;-91
2022/01/14 13:17:33;;;;;;;;;;;3.30;99.90;;;;;;5030510;28;19920;-89
2022/01/14 13:20:00;;;;;;;;;;;3.40;99.90;;;;;;5030262;28;20074;-88
2022/01/14 13:22:28;;;;;;;;;;;3.50;99.90;;;;;;5029138;28;19917;-88
2022/01/14 13:24:55;;;;;;;;;;;3.50;99.90;;;;;;5031838;28;20012;-87
2022/01/14 13:27:25;;;;;;;;;;;3.50;99.90;;;;;;5016241;28;19944;-87
2022/01/14 13:29:53;;;;;;;;;;;3.30;99.90;;;;;;5015924;28;20013;-89
2022/01/14 13:32:19;;;;;;;;;;;3.30;99.90;;;;;;5007961;28;19933;-86
2022/01/14 13:34:55;;;;;;;;;;;3.30;99.90;;;;;;5012754;28;19971;-87
2022/01/14 13:37:22;;;;;;;;;;;3.40;99.90;;;;;;5015582;28;19910;-88
2022/01/14 13:40:03;;;;;;;;;;;3.40;99.90;;;;;;5028396;28;19913;-88
2022/01/14 13:42:29;;;;;;;;;;;3.40;99.90;;;;;;5030299;28;20361;-86
2022/01/14 13:45:05;;;;;;;;;;;3.50;99.90;;;;;;5015657;28;19967;-87
2022/01/14 13:47:34;;;;;;;;;;;3.50;99.90;;;;;;5029871;28;20000;-86
2022/01/14 13:50:26;;;;;;;;;;;3.60;99.90;;;;;;5026651;28;19924;-85
2022/01/14 13:52:56;;;;;;;;;;;3.50;99.90;;;;;;5029019;28;20376;-86
2022/01/14 13:55:49;;;;;;;;;;;3.40;99.90;;;;;;5030031;28;20422;-89
2022/01/14 13:58:25;;;;;;;;;;;3.40;99.90;;;;;;5031151;28;19913;-89
2022/01/14 14:00:52;;;;;;;;;;;3.40;99.90;;;;;;5030740;28;19921;-88
2022/01/14 14:03:35;;;;;;;;;;;3.40;99.90;;;;;;5014763;28;20502;-86
2022/01/14 14:06:10;;;;;;;;;;;3.50;99.90;;;;;;5033106;28;19943;-88
2022/01/14 14:12:00;;;;;;;;;;;3.40;99.90;;;;;;5031091;28;19913;-89
2022/01/14 14:16:47;;;;;;;;;;;3.60;99.90;;;;;;5032415;28;19971;-89
2022/01/14 14:19:12;;;;;;;;;;;3.50;99.90;;;;;;5032375;28;19917;-88
2022/01/14 14:21:41;;;;;;;;;;;3.60;99.90;;;;;;5025288;28;20268;-86
2022/01/14 14:24:08;;;;;;;;;;;3.60;99.90;;;;;;5029445;28;19921;-88
2022/01/14 14:26:34;;;;;;;;;;;3.50;99.90;;;;;;5028254;28;20353;-87
2022/01/14 14:29:20;;;;;;;;;;;3.50;99.90;;;;;;5032301;28;19913;-87
2022/01/14 14:31:45;;;;;;;;;;;3.40;99.90;;;;;;5029223;28;20283;-88
2022/01/14 14:34:11;;;;;;;;;;;3.40;99.90;;;;;;5032339;28;19925;-87
2022/01/14 14:36:38;;;;;;;;;;;3.30;99.90;;;;;;5030804;28;19959;-87
2022/01/14 14:39:04;;;;;;;;;;;3.30;99.90;;;;;;5032064;28;20412;-86
2022/01/14 14:41:30;;;;;;;;;;;3.20;99.90;;;;;;5010322;28;20062;-86
2022/01/14 14:43:56;;;;;;;;;;;3.20;99.20;;;;;;5033862;28;20016;-86
2022/01/14 14:46:22;;;;;;;;;;;3.20;99.60;;;;;;5014080;28;20366;-86
2022/01/14 14:48:49;;;;;;;;;;;3.10;99.90;;;;;;5030460;28;19921;-87
2022/01/14 14:51:15;;;;;;;;;;;3.10;99.90;;;;;;5030122;28;19936;-88
2022/01/14 14:53:41;;;;;;;;;;;3.00;99.90;;;;;;5030180;28;19919;-87
2022/01/14 14:56:10;;;;;;;;;;;3.00;99.90;;;;;;5028850;28;20636;-90
2022/01/14 14:58:38;;;;;;;;;;;3.00;99.90;;;;;;5046933;28;19928;-87